sensor_id;sensor_type;location;lat;lon;timestamp;P1;durP1;ratioP1;P2;durP2;ratioP2
63782;SDS011;49925;52.522;5.732;2022-10-16T00:01:33;19.85;;;4.57;;
63782;SDS011;49925;52.522;5.732;2022-10-16T00:04:00;22.45;;;4.63;;
63782;SDS011;49925;52.522;5.732;2022-10-16T00:06:28;23.50;;;4.13;;
63782;SDS011;49925;52.522;5.732;2022-10-16T00:08:59;19.53;;;4.80;;
63782;SDS011;49925;52.522;5.732;2022-10-16T00:11:36;14.70;;;4.45;;
63782;SDS011;49925;52.522;5.732;2022-10-16T00:14:10;13.02;;;4.03;;
63782;SDS011;49925;52.522;5.732;2022-10-16T00:16:40;18.48;;;4.55;;
63782;SDS011;49925;52.522;5.732;2022-10-16T00:19:08;25.40;;;4.85;;
63782;SDS011;49925;52.522;5.732;2022-10-16T00:21:36;22.58;;;4.82;;
63782;SDS011;49925;52.522;5.732;2022-10-16T00:24:05;23.80;;;4.95;;
63782;SDS011;49925;52.522;5.732;2022-10-16T00:26:37;13.32;;;4.20;;
63782;SDS011;49925;52.522;5.732;2022-10-16T00:29:05;12.77;;;4.07;;
63782;SDS011;49925;52.522;5.732;2022-10-16T00:31:33;15.07;;;4.40;;
63782;SDS011;49925;52.522;5.732;2022-10-16T00:34:00;14.05;;;4.70;;
63782;SDS011;49925;52.522;5.732;2022-10-16T00:36:27;21.63;;;4.47;;
63782;SDS011;49925;52.522;5.732;2022-10-16T00:38:55;25.65;;;4.57;;
63782;SDS011;49925;52.522;5.732;2022-10-16T00:41:26;12.27;;;4.15;;
63782;SDS011;49925;52.522;5.732;2022-10-16T00:43:58;20.67;;;4.40;;
63782;SDS011;49925;52.522;5.732;2022-10-16T00:46:37;14.43;;;4.90;;
63782;SDS011;49925;52.522;5.732;2022-10-16T00:51:37;13.55;;;4.38;;
63782;SDS011;49925;52.522;5.732;2022-10-16T00:54:08;24.77;;;4.97;;
63782;SDS011;49925;52.522;5.732;2022-10-16T00:56:45;18.77;;;4.35;;
63782;SDS011;49925;52.522;5.732;2022-10-16T00:59:24;24.50;;;4.40;;
63782;SDS011;49925;52.522;5.732;2022-10-16T01:04:53;18.98;;;4.72;;
63782;SDS011;49925;52.522;5.732;2022-10-16T01:10:13;25.85;;;4.95;;
63782;SDS011;49925;52.522;5.732;2022-10-16T01:13:02;12.45;;;4.20;;
63782;SDS011;49925;52.522;5.732;2022-10-16T01:15:47;17.05;;;4.55;;
63782;SDS011;49925;52.522;5.732;2022-10-16T01:22:21;13.05;;;4.50;;
63782;SDS011;49925;52.522;5.732;2022-10-16T01:24:52;14.35;;;4.28;;
63782;SDS011;49925;52.522;5.732;2022-10-16T01:27:22;14.90;;;4.10;;
63782;SDS011;49925;52.522;5.732;2022-10-16T01:29:56;17.50;;;4.60;;
63782;SDS011;49925;52.522;5.732;2022-10-16T01:32:55;26.35;;;6.10;;
63782;SDS011;49925;52.522;5.732;2022-10-16T01:35:38;14.93;;;4.43;;
63782;SDS011;49925;52.522;5.732;2022-10-16T01:38:19;17.55;;;5.00;;
63782;SDS011;49925;52.522;5.732;2022-10-16T01:41:13;11.73;;;5.22;;
63782;SDS011;49925;52.522;5.732;2022-10-16T01:43:49;18.23;;;4.40;;
63782;SDS011;49925;52.522;5.732;2022-10-16T01:46:23;12.63;;;4.55;;
63782;SDS011;49925;52.522;5.732;2022-10-16T01:48:51;13.27;;;5.00;;
63782;SDS011;49925;52.522;5.732;2022-10-16T01:51:19;11.88;;;4.55;;
63782;SDS011;49925;52.522;5.732;2022-10-16T01:53:48;14.35;;;4.93;;
63782;SDS011;49925;52.522;5.732;2022-10-16T01:56:19;17.52;;;4.85;;
63782;SDS011;49925;52.522;5.732;2022-10-16T01:58:55;17.13;;;4.63;;
63782;SDS011;49925;52.522;5.732;2022-10-16T02:01:30;23.63;;;4.70;;
63782;SDS011;49925;52.522;5.732;2022-10-16T02:04:02;20.92;;;4.80;;
63782;SDS011;49925;52.522;5.732;2022-10-16T02:06:44;15.40;;;4.32;;
63782;SDS011;49925;52.522;5.732;2022-10-16T02:09:11;14.23;;;4.93;;
63782;SDS011;49925;52.522;5.732;2022-10-16T02:11:39;15.48;;;4.95;;
63782;SDS011;49925;52.522;5.732;2022-10-16T02:14:06;14.63;;;4.80;;
63782;SDS011;49925;52.522;5.732;2022-10-16T02:16:38;18.20;;;5.18;;
63782;SDS011;49925;52.522;5.732;2022-10-16T02:19:11;15.10;;;4.50;;
63782;SDS011;49925;52.522;5.732;2022-10-16T02:21:42;11.55;;;4.15;;
63782;SDS011;49925;52.522;5.732;2022-10-16T02:27:25;21.27;;;4.85;;
63782;SDS011;49925;52.522;5.732;2022-10-16T02:32:52;17.92;;;4.90;;
63782;SDS011;49925;52.522;5.732;2022-10-16T02:35:20;16.95;;;5.03;;
63782;SDS011;49925;52.522;5.732;2022-10-16T02:37:48;18.40;;;4.80;;
63782;SDS011;49925;52.522;5.732;2022-10-16T02:40:16;15.43;;;5.03;;
63782;SDS011;49925;52.522;5.732;2022-10-16T02:42:50;15.60;;;4.75;;
63782;SDS011;49925;52.522;5.732;2022-10-16T02:47:49;15.05;;;5.72;;
63782;SDS011;49925;52.522;5.732;2022-10-16T02:50:16;16.10;;;5.43;;
63782;SDS011;49925;52.522;5.732;2022-10-16T02:52:43;14.63;;;5.03;;
63782;SDS011;49925;52.522;5.732;2022-10-16T02:55:10;13.98;;;5.68;;
63782;SDS011;49925;52.522;5.732;2022-10-16T02:57:37;16.50;;;5.22;;
63782;SDS011;49925;52.522;5.732;2022-10-16T03:00:10;19.25;;;5.78;;
63782;SDS011;49925;52.522;5.732;2022-10-16T03:02:41;14.18;;;6.30;;
63782;SDS011;49925;52.522;5.732;2022-10-16T03:05:08;17.38;;;5.57;;
63782;SDS011;49925;52.522;5.732;2022-10-16T03:07:36;22.38;;;6.40;;
63782;SDS011;49925;52.522;5.732;2022-10-16T03:10:03;19.85;;;5.78;;
63782;SDS011;49925;52.522;5.732;2022-10-16T03:12:30;16.27;;;6.18;;
63782;SDS011;49925;52.522;5.732;2022-10-16T03:14:57;20.17;;;6.53;;
63782;SDS011;49925;52.522;5.732;2022-10-16T03:17:25;17.35;;;6.05;;
63782;SDS011;49925;52.522;5.732;2022-10-16T03:19:52;15.23;;;5.82;;
63782;SDS011;49925;52.522;5.732;2022-10-16T03:22:19;17.33;;;6.22;;
63782;SDS011;49925;52.522;5.732;2022-10-16T03:24:46;20.58;;;6.28;;
63782;SDS011;49925;52.522;5.732;2022-10-16T03:27:13;12.93;;;5.65;;
63782;SDS011;49925;52.522;5.732;2022-10-16T03:29:40;12.95;;;6.18;;
63782;SDS011;49925;52.522;5.732;2022-10-16T03:32:07;19.48;;;5.78;;
63782;SDS011;49925;52.522;5.732;2022-10-16T03:34:34;14.98;;;6.18;;
63782;SDS011;49925;52.522;5.732;2022-10-16T03:37:02;21.73;;;6.35;;
63782;SDS011;49925;52.522;5.732;2022-10-16T03:39:29;16.60;;;5.72;;
63782;SDS011;49925;52.522;5.732;2022-10-16T03:41:56;15.90;;;6.07;;
63782;SDS011;49925;52.522;5.732;2022-10-16T03:44:23;11.82;;;5.50;;
63782;SDS011;49925;52.522;5.732;2022-10-16T03:46:50;15.95;;;6.13;;
63782;SDS011;49925;52.522;5.732;2022-10-16T03:49:17;19.13;;;6.13;;
63782;SDS011;49925;52.522;5.732;2022-10-16T03:51:44;19.70;;;6.40;;
63782;SDS011;49925;52.522;5.732;2022-10-16T03:54:11;13.90;;;5.82;;
63782;SDS011;49925;52.522;5.732;2022-10-16T03:56:38;21.27;;;6.22;;
63782;SDS011;49925;52.522;5.732;2022-10-16T03:59:05;24.63;;;6.55;;
63782;SDS011;49925;52.522;5.732;2022-10-16T04:01:35;13.10;;;6.18;;
63782;SDS011;49925;52.522;5.732;2022-10-16T04:04:02;19.13;;;6.70;;
63782;SDS011;49925;52.522;5.732;2022-10-16T04:06:29;29.17;;;7.47;;
63782;SDS011;49925;52.522;5.732;2022-10-16T04:08:56;17.70;;;6.32;;
63782;SDS011;49925;52.522;5.732;2022-10-16T04:11:23;16.27;;;6.40;;
63782;SDS011;49925;52.522;5.732;2022-10-16T04:13:50;18.27;;;6.05;;
63782;SDS011;49925;52.522;5.732;2022-10-16T04:16:17;14.30;;;6.22;;
63782;SDS011;49925;52.522;5.732;2022-10-16T04:18:45;12.40;;;6.05;;
63782;SDS011;49925;52.522;5.732;2022-10-16T04:21:12;15.18;;;6.35;;
63782;SDS011;49925;52.522;5.732;2022-10-16T04:23:39;15.02;;;6.70;;
63782;SDS011;49925;52.522;5.732;2022-10-16T04:26:06;29.40;;;6.97;;
63782;SDS011;49925;52.522;5.732;2022-10-16T04:28:33;14.07;;;6.03;;
63782;SDS011;49925;52.522;5.732;2022-10-16T04:31:00;18.75;;;5.97;;
63782;SDS011;49925;52.522;5.732;2022-10-16T04:33:31;23.45;;;6.53;;
63782;SDS011;49925;52.522;5.732;2022-10-16T04:35:58;11.45;;;5.63;;
63782;SDS011;49925;52.522;5.732;2022-10-16T04:38:26;19.05;;;6.15;;
63782;SDS011;49925;52.522;5.732;2022-10-16T04:40:54;14.57;;;6.25;;
63782;SDS011;49925;52.522;5.732;2022-10-16T04:43:21;19.38;;;6.43;;
63782;SDS011;49925;52.522;5.732;2022-10-16T04:45:48;21.33;;;6.40;;
63782;SDS011;49925;52.522;5.732;2022-10-16T04:48:17;15.93;;;5.95;;
63782;SDS011;49925;52.522;5.732;2022-10-16T04:50:45;14.85;;;5.35;;
63782;SDS011;49925;52.522;5.732;2022-10-16T04:53:18;18.00;;;6.32;;
63782;SDS011;49925;52.522;5.732;2022-10-16T04:55:45;17.95;;;5.93;;
63782;SDS011;49925;52.522;5.732;2022-10-16T04:58:12;27.25;;;6.20;;
63782;SDS011;49925;52.522;5.732;2022-10-16T05:00:39;20.30;;;5.95;;
63782;SDS011;49925;52.522;5.732;2022-10-16T05:03:06;18.55;;;6.03;;
63782;SDS011;49925;52.522;5.732;2022-10-16T05:05:36;18.20;;;6.00;;
63782;SDS011;49925;52.522;5.732;2022-10-16T05:08:03;14.10;;;5.45;;
63782;SDS011;49925;52.522;5.732;2022-10-16T05:10:30;22.35;;;5.97;;
63782;SDS011;49925;52.522;5.732;2022-10-16T05:12:57;16.35;;;5.55;;
63782;SDS011;49925;52.522;5.732;2022-10-16T05:15:24;19.98;;;5.55;;
63782;SDS011;49925;52.522;5.732;2022-10-16T05:17:52;16.02;;;5.28;;
63782;SDS011;49925;52.522;5.732;2022-10-16T05:20:20;20.75;;;5.75;;
63782;SDS011;49925;52.522;5.732;2022-10-16T05:22:48;15.32;;;5.30;;
63782;SDS011;49925;52.522;5.732;2022-10-16T05:25:15;23.50;;;5.60;;
63782;SDS011;49925;52.522;5.732;2022-10-16T05:27:43;17.90;;;5.07;;
63782;SDS011;49925;52.522;5.732;2022-10-16T05:30:12;18.23;;;5.25;;
63782;SDS011;49925;52.522;5.732;2022-10-16T05:32:40;17.40;;;5.45;;
63782;SDS011;49925;52.522;5.732;2022-10-16T05:35:07;13.32;;;4.97;;
63782;SDS011;49925;52.522;5.732;2022-10-16T05:37:37;13.40;;;4.87;;
63782;SDS011;49925;52.522;5.732;2022-10-16T05:40:05;18.83;;;4.78;;
63782;SDS011;49925;52.522;5.732;2022-10-16T05:42:32;16.35;;;6.13;;
63782;SDS011;49925;52.522;5.732;2022-10-16T05:44:59;11.98;;;4.70;;
63782;SDS011;49925;52.522;5.732;2022-10-16T05:47:26;13.70;;;5.20;;
63782;SDS011;49925;52.522;5.732;2022-10-16T05:49:54;20.65;;;4.82;;
63782;SDS011;49925;52.522;5.732;2022-10-16T05:52:22;13.88;;;4.75;;
63782;SDS011;49925;52.522;5.732;2022-10-16T05:54:49;14.18;;;4.75;;
63782;SDS011;49925;52.522;5.732;2022-10-16T05:57:16;18.98;;;5.30;;
63782;SDS011;49925;52.522;5.732;2022-10-16T05:59:43;13.48;;;4.95;;
63782;SDS011;49925;52.522;5.732;2022-10-16T06:02:11;11.75;;;5.07;;
63782;SDS011;49925;52.522;5.732;2022-10-16T06:04:40;15.55;;;4.78;;
63782;SDS011;49925;52.522;5.732;2022-10-16T06:07:07;16.33;;;5.00;;
63782;SDS011;49925;52.522;5.732;2022-10-16T06:09:34;13.05;;;4.55;;
63782;SDS011;49925;52.522;5.732;2022-10-16T06:12:01;13.05;;;4.72;;
63782;SDS011;49925;52.522;5.732;2022-10-16T06:14:28;11.65;;;4.45;;
63782;SDS011;49925;52.522;5.732;2022-10-16T06:16:55;19.65;;;5.50;;
63782;SDS011;49925;52.522;5.732;2022-10-16T06:19:22;14.15;;;4.65;;
63782;SDS011;49925;52.522;5.732;2022-10-16T06:21:49;14.98;;;4.72;;
63782;SDS011;49925;52.522;5.732;2022-10-16T06:24:16;15.18;;;4.55;;
63782;SDS011;49925;52.522;5.732;2022-10-16T06:26:43;15.82;;;4.50;;
63782;SDS011;49925;52.522;5.732;2022-10-16T06:29:10;11.90;;;4.72;;
63782;SDS011;49925;52.522;5.732;2022-10-16T06:31:37;23.20;;;5.35;;
63782;SDS011;49925;52.522;5.732;2022-10-16T06:34:05;25.92;;;4.85;;
63782;SDS011;49925;52.522;5.732;2022-10-16T06:36:37;13.70;;;4.45;;
63782;SDS011;49925;52.522;5.732;2022-10-16T06:39:05;12.40;;;4.03;;
63782;SDS011;49925;52.522;5.732;2022-10-16T06:41:33;10.93;;;4.25;;
63782;SDS011;49925;52.522;5.732;2022-10-16T06:44:01;12.32;;;3.75;;
63782;SDS011;49925;52.522;5.732;2022-10-16T06:48:59;14.73;;;3.80;;
63782;SDS011;49925;52.522;5.732;2022-10-16T06:51:27;13.15;;;3.78;;
63782;SDS011;49925;52.522;5.732;2022-10-16T06:53:54;13.93;;;3.50;;
63782;SDS011;49925;52.522;5.732;2022-10-16T06:56:30;10.35;;;2.92;;
63782;SDS011;49925;52.522;5.732;2022-10-16T06:58:58;14.35;;;2.88;;
63782;SDS011;49925;52.522;5.732;2022-10-16T07:01:26;12.57;;;3.20;;
63782;SDS011;49925;52.522;5.732;2022-10-16T07:03:53;7.68;;;2.50;;
63782;SDS011;49925;52.522;5.732;2022-10-16T07:06:21;8.15;;;2.40;;
63782;SDS011;49925;52.522;5.732;2022-10-16T07:08:51;12.30;;;2.92;;
63782;SDS011;49925;52.522;5.732;2022-10-16T07:11:19;10.75;;;2.80;;
63782;SDS011;49925;52.522;5.732;2022-10-16T07:13:49;13.93;;;2.67;;
63782;SDS011;49925;52.522;5.732;2022-10-16T07:16:22;8.95;;;2.60;;
63782;SDS011;49925;52.522;5.732;2022-10-16T07:43:45;28.52;;;6.32;;
63782;SDS011;49925;52.522;5.732;2022-10-16T07:46:17;19.77;;;5.40;;
63782;SDS011;49925;52.522;5.732;2022-10-16T07:48:45;13.70;;;4.95;;
63782;SDS011;49925;52.522;5.732;2022-10-16T07:51:15;14.13;;;5.10;;
63782;SDS011;49925;52.522;5.732;2022-10-16T07:53:44;16.40;;;5.38;;
63782;SDS011;49925;52.522;5.732;2022-10-16T07:56:12;23.88;;;5.47;;
63782;SDS011;49925;52.522;5.732;2022-10-16T07:58:39;15.18;;;4.47;;
63782;SDS011;49925;52.522;5.732;2022-10-16T08:01:08;22.67;;;4.85;;
63782;SDS011;49925;52.522;5.732;2022-10-16T08:03:37;18.73;;;5.05;;
63782;SDS011;49925;52.522;5.732;2022-10-16T08:06:04;21.40;;;4.57;;
63782;SDS011;49925;52.522;5.732;2022-10-16T08:08:32;14.27;;;4.30;;
63782;SDS011;49925;52.522;5.732;2022-10-16T08:10:59;18.35;;;4.20;;
63782;SDS011;49925;52.522;5.732;2022-10-16T08:13:26;20.13;;;4.43;;
63782;SDS011;49925;52.522;5.732;2022-10-16T08:15:53;12.75;;;4.18;;
63782;SDS011;49925;52.522;5.732;2022-10-16T08:18:20;12.95;;;3.85;;
63782;SDS011;49925;52.522;5.732;2022-10-16T08:20:54;26.10;;;4.35;;
63782;SDS011;49925;52.522;5.732;2022-10-16T08:23:23;10.32;;;3.40;;
63782;SDS011;49925;52.522;5.732;2022-10-16T08:25:53;12.23;;;3.50;;
63782;SDS011;49925;52.522;5.732;2022-10-16T08:28:21;13.05;;;3.78;;
63782;SDS011;49925;52.522;5.732;2022-10-16T08:30:49;14.48;;;3.65;;
63782;SDS011;49925;52.522;5.732;2022-10-16T08:33:16;17.27;;;3.78;;
63782;SDS011;49925;52.522;5.732;2022-10-16T08:35:49;23.15;;;4.10;;
63782;SDS011;49925;52.522;5.732;2022-10-16T08:38:19;17.55;;;3.90;;
63782;SDS011;49925;52.522;5.732;2022-10-16T08:40:47;17.08;;;3.40;;
63782;SDS011;49925;52.522;5.732;2022-10-16T08:48:55;16.00;;;3.22;;
63782;SDS011;49925;52.522;5.732;2022-10-16T08:51:25;14.40;;;3.25;;
63782;SDS011;49925;52.522;5.732;2022-10-16T08:53:58;15.75;;;3.83;;
63782;SDS011;49925;52.522;5.732;2022-10-16T08:56:31;13.15;;;3.70;;
